createdAt,value
2018-03-28T00:00:42.398Z,22.00
2018-03-28T00:03:09.480Z,22.10
2018-03-28T00:05:37.053Z,22.00
2018-03-28T00:08:04.216Z,22.00
2018-03-28T00:10:32.598Z,21.80
2018-03-28T00:13:00.661Z,22.00
2018-03-28T00:15:28.429Z,22.00
2018-03-28T00:17:56.053Z,22.00
2018-03-28T00:20:23.775Z,21.90
2018-03-28T00:22:51.529Z,21.90
2018-03-28T00:25:18.373Z,22.00
2018-03-28T00:27:45.299Z,21.50
2018-03-28T00:30:12.381Z,21.90
2018-03-28T00:32:39.543Z,22.00
2018-03-28T00:35:06.477Z,21.50
2018-03-28T00:37:33.553Z,21.40
2018-03-28T00:40:01.165Z,21.50
2018-03-28T00:42:28.048Z,21.30
2018-03-28T00:44:56.640Z,21.60
2018-03-28T00:47:23.610Z,21.50
2018-03-28T00:49:50.715Z,21.30
2018-03-28T00:52:17.535Z,21.50
2018-03-28T00:54:44.719Z,21.30
2018-03-28T00:57:11.602Z,21.50
2018-03-28T00:59:39.243Z,21.40
2018-03-28T01:02:06.057Z,21.40
2018-03-28T01:04:33.044Z,21.50
2018-03-28T01:06:59.988Z,21.30
2018-03-28T01:09:27.166Z,21.50
2018-03-28T01:11:54.112Z,21.30
2018-03-28T01:14:21.160Z,21.50
2018-03-28T01:16:48.116Z,21.30
2018-03-28T01:19:15.478Z,21.30
2018-03-28T01:21:42.529Z,21.40
2018-03-28T01:24:09.596Z,21.40
2018-03-28T01:26:36.630Z,21.30
2018-03-28T01:29:03.534Z,21.50
2018-03-28T01:31:30.391Z,21.40
2018-03-28T01:33:57.693Z,21.20
2018-03-28T01:36:24.654Z,21.40
2018-03-28T01:38:51.921Z,21.40
2018-03-28T01:41:19.584Z,21.10
2018-03-28T01:43:47.233Z,21.40
2018-03-28T01:46:14.864Z,21.40
2018-03-28T01:48:41.862Z,21.30
2018-03-28T01:51:09.570Z,21.40
2018-03-28T01:53:36.469Z,21.30
2018-03-28T01:56:04.132Z,21.30
2018-03-28T01:58:31.893Z,21.10
2018-03-28T02:00:58.863Z,21.30
2018-03-28T02:03:25.806Z,21.20
2018-03-28T02:05:53.069Z,21.30
2018-03-28T02:08:20.026Z,21.40
2018-03-28T02:10:47.286Z,21.30
2018-03-28T02:13:14.227Z,21.10
2018-03-28T02:15:41.371Z,21.10
2018-03-28T02:18:09.093Z,20.70
2018-03-28T02:20:36.209Z,21.20
2018-03-28T02:23:03.982Z,21.30
2018-03-28T02:25:31.032Z,21.20
2018-03-28T02:27:58.071Z,21.30
2018-03-28T02:30:25.024Z,21.30
2018-03-28T02:32:52.289Z,21.30
2018-03-28T02:35:19.330Z,21.20
2018-03-28T02:37:46.507Z,20.70
2018-03-28T02:40:14.145Z,21.20
2018-03-28T02:42:41.221Z,20.70
2018-03-28T02:45:08.278Z,21.10
2018-03-28T02:47:35.347Z,20.80
2018-03-28T02:50:02.213Z,20.70
2018-03-28T03:02:19.891Z,20.50
2018-03-28T03:04:47.058Z,20.10
2018-03-28T03:07:13.990Z,20.60
2018-03-28T03:09:41.157Z,20.50
2018-03-28T03:12:10.036Z,20.70
2018-03-28T03:14:36.993Z,20.80
2018-03-28T03:17:04.313Z,20.70
2018-03-28T03:19:31.194Z,20.80
2018-03-28T03:21:58.360Z,20.90
2018-03-28T03:24:25.190Z,20.60
2018-03-28T03:26:52.968Z,20.50
2018-03-28T03:29:19.990Z,20.70
2018-03-28T03:31:47.438Z,20.70
2018-03-28T03:34:14.328Z,20.70
2018-03-28T03:36:41.697Z,20.70
2018-03-28T03:39:08.734Z,20.50
2018-03-28T03:41:36.544Z,20.80
2018-03-28T03:44:04.398Z,20.40
2018-03-28T03:46:31.543Z,20.50
2018-03-28T03:48:58.694Z,20.80
2018-03-28T03:51:26.057Z,20.70
2018-03-28T03:53:53.714Z,20.80
2018-03-28T03:56:20.778Z,20.70
2018-03-28T03:58:48.585Z,20.70
2018-03-28T04:01:16.321Z,20.50
2018-03-28T04:03:43.548Z,20.40
2018-03-28T04:06:11.468Z,20.80
2018-03-28T04:08:38.358Z,20.80
2018-03-28T04:11:06.166Z,20.50
2018-03-28T04:13:33.113Z,20.70
2018-03-28T04:16:00.673Z,20.70
2018-03-28T04:18:27.682Z,20.50
2018-03-28T04:20:54.675Z,20.70
2018-03-28T04:23:21.638Z,20.40
2018-03-28T04:25:48.911Z,20.70
2018-03-28T04:28:16.642Z,20.40
2018-03-28T04:30:43.906Z,20.50
2018-03-28T04:33:10.857Z,20.70
2018-03-28T04:35:38.116Z,20.70
2018-03-28T04:38:05.818Z,20.70
2018-03-28T04:40:32.736Z,20.70
2018-03-28T04:43:00.414Z,20.40
2018-03-28T04:45:27.343Z,20.70
2018-03-28T04:47:55.037Z,20.40
2018-03-28T04:50:24.541Z,20.50
2018-03-28T04:52:52.301Z,20.60
2018-03-28T04:55:19.870Z,20.50
2018-03-28T04:57:46.808Z,20.40
2018-03-28T05:00:13.765Z,20.50
2018-03-28T05:02:40.920Z,20.00
2018-03-28T05:05:07.996Z,20.00
2018-03-28T05:07:37.074Z,20.50
2018-03-28T05:10:04.167Z,20.50
2018-03-28T05:12:31.743Z,21.30
2018-03-28T05:14:58.731Z,21.20
2018-03-28T05:17:25.802Z,22.00
2018-03-28T05:19:53.668Z,22.70
2018-03-28T05:22:20.619Z,22.70
2018-03-28T05:24:47.671Z,22.70
2018-03-28T05:27:14.782Z,22.80
2018-03-28T05:29:41.878Z,23.50
2018-03-28T05:32:09.850Z,23.60
2018-03-28T05:34:37.126Z,23.50
2018-03-28T05:37:04.263Z,23.60
2018-03-28T05:39:31.314Z,23.70
2018-03-28T05:41:58.481Z,24.20
2018-03-28T05:44:26.918Z,23.80
2018-03-28T05:46:53.740Z,24.30
2018-03-28T05:49:21.372Z,23.90
2018-03-28T05:51:48.414Z,24.30
2018-03-28T05:54:16.096Z,24.10
2018-03-28T05:56:43.030Z,24.30
2018-03-28T05:59:10.389Z,23.70
2018-03-28T06:01:39.071Z,23.60
2018-03-28T06:04:06.051Z,23.50
2018-03-28T06:06:34.533Z,23.40
2018-03-28T06:09:01.473Z,23.60
2018-03-28T06:11:28.773Z,23.50
2018-03-28T06:13:55.674Z,23.00
2018-03-28T06:16:22.894Z,23.40
2018-03-28T06:18:49.894Z,22.90
2018-03-28T06:21:17.141Z,22.80
2018-03-28T06:23:44.082Z,22.90
2018-03-28T06:26:11.560Z,23.40
2018-03-28T06:28:40.662Z,23.50
2018-03-28T06:31:07.592Z,23.30
2018-03-28T06:33:35.092Z,23.60
2018-03-28T06:36:02.731Z,23.80
2018-03-28T06:38:29.884Z,23.70
2018-03-28T06:40:57.408Z,24.30
2018-03-28T06:43:24.409Z,23.80
2018-03-28T06:45:51.305Z,24.40
2018-03-28T06:48:18.403Z,24.20
2018-03-28T06:50:45.362Z,23.60
2018-03-28T06:53:12.304Z,23.70
2018-03-28T06:55:39.107Z,24.10
2018-03-28T06:58:06.122Z,23.70
2018-03-28T07:00:34.539Z,23.40
2018-03-28T07:03:01.452Z,23.70
2018-03-28T07:05:29.132Z,23.60
2018-03-28T07:07:56.760Z,23.50
2018-03-28T07:10:23.724Z,23.60
2018-03-28T07:12:50.736Z,23.00
2018-03-28T07:15:17.834Z,22.90
2018-03-28T07:17:44.779Z,22.90
2018-03-28T07:20:11.730Z,22.90
2018-03-28T07:22:38.791Z,22.80
2018-03-28T07:25:06.803Z,23.50
2018-03-28T07:27:34.630Z,23.50
2018-03-28T07:30:01.784Z,23.50
2018-03-28T07:32:29.599Z,23.50
2018-03-28T07:34:56.502Z,23.40
2018-03-28T07:37:24.074Z,23.40
2018-03-28T07:39:51.745Z,22.90
2018-03-28T07:42:18.897Z,22.80
2018-03-28T07:44:45.963Z,22.80
2018-03-28T07:47:13.093Z,22.70
2018-03-28T07:49:40.967Z,22.10
2018-03-28T07:52:07.866Z,22.10
2018-03-28T07:54:35.441Z,22.10
2018-03-28T07:57:02.545Z,22.00
2018-03-28T07:59:30.211Z,22.10
2018-03-28T08:01:57.350Z,22.10
2018-03-28T08:04:24.307Z,22.10
2018-03-28T08:06:51.161Z,22.00
2018-03-28T08:09:18.214Z,22.00
2018-03-28T08:11:45.049Z,21.50
2018-03-28T08:14:11.896Z,22.00
2018-03-28T08:16:38.873Z,22.00
2018-03-28T08:19:06.524Z,22.00
2018-03-28T08:21:33.456Z,22.00
2018-03-28T08:24:00.374Z,21.90
2018-03-28T08:26:27.369Z,21.50
2018-03-28T08:28:54.321Z,21.40
2018-03-28T08:31:21.180Z,21.90
2018-03-28T08:33:48.732Z,21.50
2018-03-28T08:36:15.690Z,22.00
2018-03-28T08:38:43.300Z,21.90
2018-03-28T08:41:10.304Z,21.90
2018-03-28T08:43:37.389Z,21.50
2018-03-28T08:46:04.429Z,21.40
2018-03-28T08:48:32.188Z,21.90
2018-03-28T08:50:59.101Z,21.60
2018-03-28T08:53:26.389Z,21.50
2018-03-28T08:55:54.188Z,21.80
2018-03-28T08:58:21.100Z,21.50
2018-03-28T09:00:48.888Z,21.50
2018-03-28T09:03:15.914Z,21.40
2018-03-28T09:05:43.277Z,21.40
2018-03-28T09:08:10.539Z,21.40
2018-03-28T09:10:37.494Z,21.30
2018-03-28T09:13:04.395Z,21.10
2018-03-28T09:15:31.493Z,21.30
2018-03-28T09:17:58.571Z,21.30
2018-03-28T09:20:26.208Z,21.30
2018-03-28T09:22:53.110Z,21.20
2018-03-28T09:25:20.268Z,21.30
2018-03-28T09:27:47.165Z,21.30
2018-03-28T09:30:15.080Z,21.20
2018-03-28T09:32:42.788Z,20.70
2018-03-28T09:35:09.764Z,21.30
2018-03-28T09:37:37.433Z,20.70
2018-03-28T09:40:04.599Z,21.30
2018-03-28T09:42:32.444Z,20.80
2018-03-28T09:44:59.344Z,20.80
2018-03-28T09:47:26.232Z,20.80
2018-03-28T09:49:53.029Z,20.90
2018-03-28T09:52:20.657Z,20.80
2018-03-28T09:54:47.984Z,20.80
2018-03-28T09:57:15.791Z,20.70
2018-03-28T09:59:42.733Z,20.70
2018-03-28T10:02:09.712Z,20.60
2018-03-28T10:04:43.409Z,20.50
2018-03-28T10:07:10.744Z,20.50
2018-03-28T10:09:38.425Z,20.80
2018-03-28T10:12:05.227Z,20.70
2018-03-28T10:14:32.226Z,20.80
2018-03-28T10:16:59.395Z,20.80
2018-03-28T10:19:26.426Z,20.70
2018-03-28T10:21:53.382Z,20.80
2018-03-28T10:24:20.399Z,21.40
2018-03-28T10:26:47.277Z,21.20
2018-03-28T10:29:14.325Z,21.90
2018-03-28T10:31:41.434Z,22.00
2018-03-28T10:34:08.326Z,22.50
2018-03-28T10:36:35.481Z,22.60
2018-03-28T10:39:02.428Z,22.70
2018-03-28T10:41:29.705Z,22.80
2018-03-28T10:43:56.636Z,22.80
2018-03-28T10:46:23.559Z,22.90
2018-03-28T10:48:50.356Z,23.40
2018-03-28T10:51:17.287Z,23.30
2018-03-28T10:53:44.121Z,22.90
2018-03-28T10:56:11.298Z,23.40
2018-03-28T10:58:40.457Z,23.30
2018-03-28T11:01:07.757Z,23.30
2018-03-28T11:03:34.712Z,23.30
2018-03-28T11:06:02.481Z,22.90
2018-03-28T11:08:29.751Z,23.30
2018-03-28T11:10:56.673Z,23.40
2018-03-28T11:13:23.595Z,23.40
2018-03-28T11:15:50.595Z,23.00
2018-03-28T11:18:18.213Z,23.00
2018-03-28T11:20:45.100Z,23.00
2018-03-28T11:23:12.511Z,22.90
2018-03-28T11:25:39.435Z,22.80
2018-03-28T11:28:07.314Z,22.60
2018-03-28T11:30:35.157Z,22.70
2018-03-28T11:33:02.929Z,22.60
2018-03-28T11:35:30.487Z,22.70
2018-03-28T11:37:57.594Z,22.30
2018-03-28T11:40:25.154Z,22.10
2018-03-28T11:42:52.036Z,22.10
2018-03-28T11:45:19.101Z,22.10
2018-03-28T11:47:46.065Z,22.10
2018-03-28T11:50:12.944Z,21.90
2018-03-28T11:52:39.961Z,22.00
2018-03-28T11:55:07.328Z,22.00
2018-03-28T11:57:35.082Z,22.10
2018-03-28T12:00:02.558Z,22.10
2018-03-28T12:02:31.234Z,22.70
2018-03-28T12:04:58.140Z,22.60
2018-03-28T12:07:25.337Z,22.80
2018-03-28T12:09:52.316Z,22.70
2018-03-28T12:12:19.909Z,23.30
2018-03-28T12:14:46.828Z,23.40
2018-03-28T12:17:14.398Z,23.10
2018-03-28T12:19:42.769Z,23.00
2018-03-28T12:22:10.428Z,23.40
2018-03-28T12:24:37.469Z,23.00
2018-03-28T12:27:04.260Z,22.90
2018-03-28T12:29:31.375Z,23.00
2018-03-28T12:31:58.429Z,22.70
2018-03-28T12:34:25.902Z,22.90
2018-03-28T12:36:52.988Z,22.80
2018-03-28T12:39:20.213Z,22.80
2018-03-28T12:41:47.890Z,22.70
2018-03-28T12:44:15.733Z,22.80
2018-03-28T12:46:42.642Z,22.70
2018-03-28T12:49:10.218Z,22.80
2018-03-28T12:51:37.324Z,22.80
2018-03-28T12:54:05.594Z,23.40
2018-03-28T12:56:32.493Z,22.90
2018-03-28T12:59:00.161Z,22.90
2018-03-28T13:01:27.174Z,22.90
2018-03-28T13:03:55.634Z,22.80
2018-03-28T13:06:22.501Z,22.80
2018-03-28T13:08:50.261Z,23.00
2018-03-28T13:11:17.223Z,23.60
2018-03-28T13:13:44.794Z,23.80
2018-03-28T13:16:12.453Z,24.50
2018-03-28T13:18:40.283Z,24.50
2018-03-28T13:21:07.102Z,24.70
2018-03-28T13:23:33.944Z,24.70
2018-03-28T13:26:01.080Z,24.70
2018-03-28T13:28:28.929Z,24.30
2018-03-28T13:30:56.081Z,24.40
2018-03-28T13:33:22.986Z,25.10
2018-03-28T13:35:50.535Z,24.80
2018-03-28T13:38:17.440Z,24.80
2018-03-28T13:40:44.973Z,25.40
2018-03-28T13:43:11.864Z,25.30
2018-03-28T13:45:38.910Z,25.30
2018-03-28T13:48:06.104Z,24.90
2018-03-28T13:50:33.848Z,25.20
2018-03-28T13:53:01.201Z,24.70
2018-03-28T13:55:28.108Z,24.70
2018-03-28T13:57:55.922Z,24.70
2018-03-28T14:00:22.831Z,24.60
2018-03-28T14:02:49.830Z,24.70
2018-03-28T14:05:17.083Z,23.90
2018-03-28T14:07:43.969Z,24.40
2018-03-28T14:10:11.644Z,23.80
2018-03-28T14:12:38.638Z,23.70
2018-03-28T14:15:06.519Z,23.90
2018-03-28T14:17:34.183Z,23.60
2018-03-28T14:20:01.981Z,23.70
2018-03-28T14:22:29.676Z,23.50
2018-03-28T14:24:57.591Z,23.10
2018-03-28T14:27:24.541Z,23.00
2018-03-28T14:29:52.269Z,23.50
2018-03-28T14:32:19.257Z,23.00
2018-03-28T14:34:46.224Z,23.00
2018-03-28T14:37:13.367Z,23.60
2018-03-28T14:39:40.333Z,23.80
2018-03-28T14:42:07.474Z,23.80
2018-03-28T14:44:34.897Z,24.30
2018-03-28T14:47:01.793Z,24.40
2018-03-28T14:49:29.899Z,24.60
2018-03-28T14:51:56.971Z,25.10
2018-03-28T14:54:24.413Z,24.70
2018-03-28T14:56:51.357Z,25.30
2018-03-28T14:59:19.298Z,25.40
2018-03-28T15:01:46.299Z,25.50
2018-03-28T15:04:14.130Z,25.50
2018-03-28T15:06:41.100Z,25.40
2018-03-28T15:09:08.946Z,25.50
2018-03-28T15:11:35.844Z,25.50
2018-03-28T15:14:02.797Z,25.50
2018-03-28T15:16:30.201Z,25.40
2018-03-28T15:18:57.047Z,25.40
2018-03-28T15:21:24.104Z,25.50
2018-03-28T15:23:51.834Z,25.30
2018-03-28T15:26:18.970Z,25.40
2018-03-28T15:28:46.585Z,25.40
2018-03-28T15:31:14.568Z,25.40
2018-03-28T15:33:41.839Z,25.10
2018-03-28T15:36:08.807Z,25.30
2018-03-28T15:38:37.213Z,24.70
2018-03-28T15:41:04.094Z,24.80
2018-03-28T15:43:31.988Z,24.70
2018-03-28T15:45:58.983Z,24.60
2018-03-28T15:48:25.884Z,24.50
2018-03-28T15:50:53.134Z,24.60
2018-03-28T15:53:20.189Z,23.80
2018-03-28T15:55:47.832Z,24.30
2018-03-28T15:58:15.020Z,23.70
2018-03-28T16:00:41.927Z,23.80
2018-03-28T16:03:09.734Z,23.70
2018-03-28T16:05:37.395Z,23.70
2018-03-28T16:08:05.074Z,23.70
2018-03-28T16:10:32.012Z,23.60
2018-03-28T16:12:58.941Z,23.10
2018-03-28T16:15:26.913Z,22.90
2018-03-28T16:17:53.902Z,22.80
2018-03-28T16:20:20.942Z,22.60
2018-03-28T16:22:47.883Z,22.30
2018-03-28T16:25:14.938Z,22.10
2018-03-28T16:27:42.713Z,22.00
2018-03-28T16:30:09.668Z,22.10
2018-03-28T16:32:37.337Z,22.00
2018-03-28T16:35:04.404Z,22.00
2018-03-28T16:37:32.065Z,22.10
2018-03-28T16:39:59.661Z,22.60
2018-03-28T16:42:27.194Z,22.60
2018-03-28T16:44:54.852Z,22.80
2018-03-28T16:47:22.443Z,22.80
2018-03-28T16:49:50.041Z,23.00
2018-03-28T16:52:17.789Z,23.30
2018-03-28T16:54:44.801Z,23.50
2018-03-28T16:57:12.566Z,23.60
2018-03-28T16:59:39.533Z,23.60
2018-03-28T17:02:06.361Z,23.60
2018-03-28T17:04:33.934Z,23.70
2018-03-28T17:07:01.646Z,23.60
2018-03-28T17:09:29.221Z,23.60
2018-03-28T17:11:56.113Z,23.60
2018-03-28T17:14:23.999Z,23.70
2018-03-28T17:16:51.637Z,23.60
2018-03-28T17:19:19.620Z,23.60
2018-03-28T17:21:46.840Z,23.60
2018-03-28T17:24:13.777Z,23.60
2018-03-28T17:26:41.035Z,23.80
2018-03-28T17:29:07.912Z,24.40
2018-03-28T17:31:35.005Z,24.50
2018-03-28T17:34:03.113Z,23.90
2018-03-28T17:36:29.992Z,24.50
2018-03-28T17:38:58.087Z,24.50
2018-03-28T17:41:25.028Z,24.30
2018-03-28T17:43:53.097Z,24.20
2018-03-28T17:46:19.989Z,24.30
2018-03-28T17:48:48.400Z,23.40
2018-03-28T17:51:15.487Z,23.50
2018-03-28T17:53:42.356Z,22.90
2018-03-28T17:56:09.622Z,22.90
2018-03-28T17:58:36.625Z,23.00
2018-03-28T18:01:04.309Z,22.80
2018-03-28T18:03:31.173Z,22.80
2018-03-28T18:05:58.158Z,22.70
2018-03-28T18:08:25.791Z,22.70
2018-03-28T18:10:52.799Z,22.80
2018-03-28T18:13:20.509Z,22.90
2018-03-28T18:15:47.422Z,22.70
2018-03-28T18:18:14.947Z,22.70
2018-03-28T18:20:42.658Z,22.60
2018-03-28T18:23:10.325Z,22.60
2018-03-28T18:25:37.429Z,22.20
2018-03-28T18:28:05.158Z,22.20
2018-03-28T18:30:32.120Z,22.10
2018-03-28T18:33:00.136Z,22.10
2018-03-28T18:35:27.790Z,22.10
2018-03-28T18:37:56.233Z,22.10
2018-03-28T18:40:23.130Z,22.20
2018-03-28T18:42:51.555Z,22.00
2018-03-28T18:45:18.564Z,22.10
2018-03-28T18:47:46.743Z,22.50
2018-03-28T18:50:13.860Z,22.10
2018-03-28T18:52:41.709Z,22.20
2018-03-28T18:55:08.897Z,22.70
2018-03-28T18:57:36.532Z,22.70
2018-03-28T19:00:03.642Z,22.70
2018-03-28T19:02:32.194Z,23.30
2018-03-28T19:04:59.109Z,22.90
2018-03-28T19:07:26.782Z,23.40
2018-03-28T19:09:53.689Z,23.30
2018-03-28T19:12:21.448Z,23.50
2018-03-28T19:14:48.440Z,23.40
2018-03-28T19:17:16.213Z,23.50
2018-03-28T19:19:43.228Z,24.30
2018-03-28T19:22:11.182Z,23.80
2018-03-28T19:24:38.109Z,23.80
2018-03-28T19:27:05.221Z,23.70
2018-03-28T19:29:32.353Z,23.60
2018-03-28T19:32:00.026Z,23.50
2018-03-28T19:34:27.178Z,23.60
2018-03-28T19:36:54.329Z,23.60
2018-03-28T19:39:22.038Z,23.40
2018-03-28T19:41:49.045Z,23.10
2018-03-28T19:44:16.368Z,23.50
2018-03-28T19:46:43.346Z,23.70
2018-03-28T19:49:11.166Z,24.20
2018-03-28T19:51:38.153Z,24.20
2018-03-28T19:54:05.940Z,24.10
2018-03-28T19:56:32.945Z,23.60
2018-03-28T19:58:59.790Z,23.60
2018-03-28T20:01:28.285Z,23.40
2018-03-28T20:03:55.956Z,23.60
2018-03-28T20:06:22.910Z,23.50
2018-03-28T20:08:49.908Z,23.60
2018-03-28T20:11:17.105Z,23.10
2018-03-28T20:13:44.002Z,23.40
2018-03-28T20:16:11.781Z,23.40
2018-03-28T20:18:39.123Z,23.40
2018-03-28T20:21:07.965Z,22.80
2018-03-28T20:23:34.896Z,22.90
2018-03-28T20:26:02.190Z,22.70
2018-03-28T20:28:29.236Z,22.20
2018-03-28T20:30:56.850Z,22.10
2018-03-28T20:33:23.805Z,22.10
2018-03-28T20:35:51.527Z,22.20
2018-03-28T20:38:18.450Z,22.20
2018-03-28T20:40:47.006Z,22.10
2018-03-28T20:43:13.962Z,22.10
2018-03-28T20:45:41.002Z,22.00
2018-03-28T20:48:08.169Z,22.10
2018-03-28T20:50:35.006Z,22.20
2018-03-28T20:53:02.992Z,22.10
2018-03-28T20:55:29.880Z,22.20
2018-03-28T20:57:57.551Z,22.20
2018-03-28T21:00:24.395Z,22.20
2018-03-28T21:02:51.608Z,22.10
2018-03-28T21:05:18.880Z,22.00
2018-03-28T21:07:45.890Z,22.00
2018-03-28T21:10:13.489Z,22.10
2018-03-28T21:12:40.383Z,22.00
2018-03-28T21:15:08.009Z,22.00
2018-03-28T21:17:34.814Z,22.00
2018-03-28T21:20:01.686Z,21.90
2018-03-28T21:22:28.856Z,21.90
2018-03-28T21:24:55.773Z,22.00
2018-03-28T21:27:23.571Z,22.00
2018-03-28T21:29:50.523Z,22.00
2018-03-28T21:32:18.154Z,21.90
2018-03-28T21:34:45.135Z,21.90
2018-03-28T21:37:12.822Z,21.90
2018-03-28T21:39:40.466Z,21.50
2018-03-28T21:42:08.224Z,21.40
2018-03-28T21:44:35.211Z,21.50
2018-03-28T21:47:03.470Z,21.40
2018-03-28T21:49:30.425Z,21.50
2018-03-28T21:51:58.036Z,21.30
2018-03-28T21:54:24.933Z,21.30
2018-03-28T21:56:51.899Z,21.30
2018-03-28T21:59:19.555Z,21.50
2018-03-28T22:01:46.468Z,21.40
2018-03-28T22:04:14.076Z,21.30
2018-03-28T22:06:41.003Z,21.50
2018-03-28T22:09:08.770Z,21.50
2018-03-28T22:11:35.931Z,21.30
2018-03-28T22:14:03.751Z,21.40
2018-03-28T22:16:30.648Z,21.20
2018-03-28T22:18:57.501Z,21.40
2018-03-28T22:21:25.890Z,21.10
2018-03-28T22:23:52.844Z,21.20
2018-03-28T22:26:19.844Z,21.40
2018-03-28T22:28:46.622Z,21.40
2018-03-28T22:31:13.397Z,21.30
2018-03-28T22:33:40.541Z,21.30
2018-03-28T22:36:07.603Z,21.30
2018-03-28T22:38:35.367Z,20.70
2018-03-28T22:41:02.334Z,21.30
2018-03-28T22:43:30.199Z,21.30
2018-03-28T22:45:57.780Z,21.30
2018-03-28T22:48:25.376Z,21.20
2018-03-28T22:50:52.288Z,21.20
2018-03-28T22:53:20.760Z,21.30
2018-03-28T22:55:47.697Z,21.20
2018-03-28T22:58:15.461Z,20.70
2018-03-28T23:00:42.412Z,20.60
2018-03-28T23:03:10.216Z,21.20
2018-03-28T23:05:37.134Z,20.90
2018-03-28T23:08:04.205Z,20.80
2018-03-28T23:10:31.344Z,21.30
2018-03-28T23:12:58.248Z,20.60
2018-03-28T23:15:25.911Z,20.90
2018-03-28T23:17:53.003Z,20.80
2018-03-28T23:20:20.621Z,20.80
2018-03-28T23:22:47.529Z,20.50
2018-03-28T23:25:14.324Z,20.70
2018-03-28T23:27:41.644Z,20.80
2018-03-28T23:30:08.682Z,20.80
2018-03-28T23:32:36.369Z,20.80
2018-03-28T23:35:03.302Z,20.50
2018-03-28T23:37:30.155Z,20.80
2018-03-28T23:39:57.471Z,20.50
2018-03-28T23:42:24.484Z,20.70
2018-03-28T23:44:52.890Z,20.50
2018-03-28T23:47:19.797Z,20.50
2018-03-28T23:49:47.568Z,20.50
2018-03-28T23:52:14.737Z,20.70
2018-03-28T23:54:41.767Z,20.70
2018-03-28T23:57:09.076Z,20.70
2018-03-28T23:59:35.907Z,20.70
